Time;durP1;ratioP1;P1;durP2;ratioP2;P2;SDS_P1;SDS_P2;PMS_P1;PMS_P2;Temp;Humidity;BMP_temperature;BMP_pressure;BME280_temperature;BME280_humidity;BME280_pressure;Samples;Min_cycle;Max_cycle;Signal;HPM_P1;HPM_P2
2022/03/25 00:01:22;;;;;;;43.67;21.10;;;;;;;0.20;57.60;101787.73;1725104;83;21019;-84
2022/03/25 00:03:49;;;;;;;41.30;21.20;;;;;;;0.18;57.62;101788.97;1724838;83;20959;-84
2022/03/25 00:06:17;;;;;;;42.20;21.67;;;;;;;0.14;57.61;101781.99;1724801;83;21030;-85
2022/03/25 00:08:45;;;;;;;46.07;21.57;;;;;;;0.12;57.64;101785.36;1699380;83;21965;-83
2022/03/25 00:11:12;;;;;;;47.03;22.03;;;;;;;0.11;57.60;101792.23;1694185;84;21050;-82
2022/03/25 00:13:39;;;;;;;40.97;22.00;;;;;;;0.09;57.66;101782.28;1676737;85;21044;-82
2022/03/25 00:16:07;;;;;;;50.30;24.07;;;;;;;0.08;57.62;101780.93;1676663;85;21298;-83
2022/03/25 00:18:35;;;;;;;44.33;21.37;;;;;;;0.03;57.67;101774.77;1676778;85;21544;-84
2022/03/25 00:21:02;;;;;;;49.17;24.20;;;;;;;-0.04;57.60;101775.89;1676612;85;21231;-84
2022/03/25 00:23:29;;;;;;;59.63;28.30;;;;;;;-0.08;57.91;101768.91;1676917;85;21545;-83
2022/03/25 00:25:57;;;;;;;49.80;26.60;;;;;;;-0.08;58.16;101770.20;1676711;85;21552;-84
2022/03/25 00:28:24;;;;;;;49.27;25.80;;;;;;;-0.11;58.08;101771.80;1676908;85;21007;-83
2022/03/25 00:30:52;;;;;;;45.77;24.93;;;;;;;-0.14;58.24;101768.75;1676815;85;21046;-84
2022/03/25 00:33:19;;;;;;;46.23;25.70;;;;;;;-0.18;58.42;101770.77;1676981;85;21293;-85
2022/03/25 00:35:46;;;;;;;46.43;23.70;;;;;;;-0.19;58.60;101774.56;1676567;85;21592;-84
2022/03/25 00:38:13;;;;;;;44.37;22.87;;;;;;;-0.20;58.79;101771.55;1651707;85;21500;-83
2022/03/25 00:40:44;;;;;;;44.90;24.13;;;;;;;-0.23;58.98;101769.33;1676650;85;21540;-84
2022/03/25 00:43:10;;;;;;;48.87;25.13;;;;;;;-0.25;58.94;101771.02;1676451;85;21489;-84
2022/03/25 00:45:38;;;;;;;43.63;23.33;;;;;;;-0.26;59.02;101778.69;1677023;85;21788;-84
2022/03/25 00:48:06;;;;;;;50.40;25.53;;;;;;;-0.29;59.09;101770.87;1676587;85;21082;-84
2022/03/25 00:50:36;;;;;;;47.67;23.93;;;;;;;-0.33;59.15;101771.20;1676902;85;20995;-84
2022/03/25 00:53:03;;;;;;;46.97;24.30;;;;;;;-0.36;59.18;101766.34;1676729;85;21031;-84
2022/03/25 00:55:30;;;;;;;42.27;23.33;;;;;;;-0.38;59.35;101763.75;1676918;85;21015;-83
2022/03/25 00:58:00;;;;;;;45.00;23.47;;;;;;;-0.43;59.35;101760.16;1676717;85;21140;-84
2022/03/25 01:00:27;;;;;;;46.90;23.32;;;;;;;-0.45;59.50;101763.09;1676934;85;21632;-85
2022/03/25 01:02:54;;;;;;;35.57;17.73;;;;;;;-0.48;59.55;101760.43;1676673;85;21038;-85
2022/03/25 01:05:23;;;;;;;33.50;17.40;;;;;;;-0.52;59.43;101762.47;1677018;85;21039;-85
2022/03/25 01:07:50;;;;;;;29.17;17.10;;;;;;;-0.58;59.43;101758.39;1676654;85;21511;-85
2022/03/25 01:10:17;;;;;;;33.17;17.03;;;;;;;-0.62;59.47;101757.44;1676846;85;21134;-86
2022/03/25 01:12:44;;;;;;;29.03;16.47;;;;;;;-0.63;59.70;101759.56;1676591;85;21480;-84
2022/03/25 01:15:11;;;;;;;33.20;17.93;;;;;;;-0.63;59.98;101756.98;1676948;85;21050;-86
2022/03/25 01:17:40;;;;;;;29.27;16.50;;;;;;;-0.63;59.97;101749.69;1676561;85;20996;-86
2022/03/25 01:20:09;;;;;;;30.93;16.80;;;;;;;-0.62;60.17;101752.70;1676976;85;21117;-86
2022/03/25 01:22:36;;;;;;;36.03;18.30;;;;;;;-0.63;60.11;101749.69;1676621;85;21313;-85
2022/03/25 01:25:06;;;;;;;30.97;17.83;;;;;;;-0.66;60.31;101753.45;1676854;85;21088;-84
2022/03/25 01:27:33;;;;;;;29.72;16.70;;;;;;;-0.69;60.46;101749.95;1676722;85;21034;-85
2022/03/25 01:30:00;;;;;;;32.27;18.20;;;;;;;-0.67;60.48;101751.27;1676871;85;20963;-85
2022/03/25 01:32:30;;;;;;;32.37;19.03;;;;;;;-0.71;60.52;101747.73;1676593;85;21023;-86
2022/03/25 01:34:57;;;;;;;37.57;18.60;;;;;;;-0.73;60.57;101750.67;1676697;85;21239;-86
2022/03/25 01:37:25;;;;;;;35.00;20.20;;;;;;;-0.77;60.66;101746.27;1676951;85;20998;-86
2022/03/25 01:39:52;;;;;;;33.70;20.13;;;;;;;-0.78;60.90;101747.08;1676813;85;21062;-85
2022/03/25 01:42:31;;;;;;;38.23;19.37;;;;;;;-0.79;60.76;101745.34;1676567;85;21043;-87
2022/03/25 01:44:59;;;;;;;40.83;20.33;;;;;;;-0.82;60.91;101747.82;1676872;85;21042;-85
2022/03/25 01:47:30;;;;;;;39.63;20.30;;;;;;;-0.84;60.96;101748.17;1677102;85;21182;-87
2022/03/25 01:49:59;;;;;;;36.17;19.40;;;;;;;-0.85;61.05;101744.28;1676714;85;28362;-87
2022/03/25 01:52:28;;;;;;;38.07;18.93;;;;;;;-0.87;61.09;101743.36;1676874;85;20935;-86
2022/03/25 01:54:57;;;;;;;38.20;19.30;;;;;;;-0.91;61.00;101745.84;1676579;85;21495;-87
2022/03/25 01:57:25;;;;;;;30.00;17.27;;;;;;;-0.91;61.10;101746.26;1673146;85;21026;-86
2022/03/25 01:59:55;;;;;;;39.40;20.40;;;;;;;-0.93;61.04;101749.19;1676617;85;21151;-86
2022/03/25 02:02:22;;;;;;;34.58;18.67;;;;;;;-0.97;61.07;101749.52;1676907;85;21027;-87
2022/03/25 02:04:49;;;;;;;38.90;19.63;;;;;;;-0.98;61.12;101750.31;1676721;85;21030;-87
2022/03/25 02:07:16;;;;;;;36.03;19.80;;;;;;;-0.98;61.26;101746.88;1677018;85;21030;-86
2022/03/25 02:09:45;;;;;;;38.03;19.70;;;;;;;-1.00;61.31;101743.38;1676149;85;21043;-87
2022/03/25 02:12:14;;;;;;;38.70;19.07;;;;;;;-1.00;61.47;101742.09;1676754;85;21123;-86
2022/03/25 02:14:42;;;;;;;37.97;19.70;;;;;;;-1.03;61.40;101735.14;1676553;85;21094;-85
2022/03/25 02:17:09;;;;;;;39.40;19.27;;;;;;;-1.06;61.42;101739.33;1676894;85;21585;-88
2022/03/25 02:19:36;;;;;;;36.03;19.00;;;;;;;-1.08;61.36;101740.97;1676760;85;20951;-88
2022/03/25 02:22:04;;;;;;;36.07;18.77;;;;;;;-1.12;61.30;101739.58;1676935;85;21507;-87
2022/03/25 02:24:33;;;;;;;32.00;18.27;;;;;;;-1.14;61.29;101739.07;1676586;85;21162;-87
2022/03/25 02:27:03;;;;;;;39.30;19.87;;;;;;;-1.18;61.33;101742.38;1676784;85;21038;-87
2022/03/25 02:29:33;;;;;;;42.43;21.93;;;;;;;-1.19;61.49;101742.80;1676790;85;21066;-86
2022/03/25 02:32:00;;;;;;;46.67;26.03;;;;;;;-1.20;61.65;101743.61;1676800;85;21039;-83
2022/03/25 02:34:30;;;;;;;44.53;21.67;;;;;;;-1.20;61.61;101749.17;1676705;85;21038;-87
2022/03/25 02:36:57;;;;;;;42.33;24.20;;;;;;;-1.24;61.65;101749.49;1676983;85;21134;-88
2022/03/25 02:39:24;;;;;;;37.83;21.37;;;;;;;-1.27;61.71;101742.97;1676589;85;21026;-87
2022/03/25 02:41:51;;;;;;;41.13;22.90;;;;;;;-1.29;61.70;101751.45;1676792;85;21066;-81
2022/03/25 02:44:19;;;;;;;38.77;21.53;;;;;;;-1.32;61.91;101750.06;1676557;85;20967;-88
2022/03/25 02:46:46;;;;;;;38.37;21.87;;;;;;;-1.35;61.95;101750.84;1676819;85;20999;-87
2022/03/25 02:49:13;;;;;;;43.07;21.43;;;;;;;-1.40;62.11;101752.37;1676609;85;21589;-87
2022/03/25 02:51:41;;;;;;;42.23;22.57;;;;;;;-1.39;62.21;101753.70;1676825;85;21039;-88
2022/03/25 02:54:08;;;;;;;39.70;21.73;;;;;;;-1.39;62.26;101759.27;1676607;85;21508;-88
2022/03/25 02:56:35;;;;;;;44.73;23.27;;;;;;;-1.42;62.30;101754.02;1676577;85;21437;-87
2022/03/25 02:59:02;;;;;;;44.63;24.80;;;;;;;-1.42;62.56;101754.88;1676897;85;21110;-86
2022/03/25 03:01:30;;;;;;;51.97;25.70;;;;;;;-1.44;62.63;101750.12;1676679;85;21947;-89
2022/03/25 03:03:57;;;;;;;42.20;23.47;;;;;;;-1.43;62.82;101749.29;1676662;85;21531;-87
2022/03/25 03:06:24;;;;;;;45.43;22.87;;;;;;;-1.44;62.79;101746.66;1676641;85;21500;-87
2022/03/25 03:08:51;;;;;;;40.60;22.70;;;;;;;-1.48;62.82;101749.54;1675893;85;21048;-88
2022/03/25 03:11:18;;;;;;;41.80;23.77;;;;;;;-1.47;62.92;101751.31;1675012;85;21304;-87
2022/03/25 03:13:45;;;;;;;40.57;22.00;;;;;;;-1.50;62.93;101746.03;1674889;85;21248;-87
2022/03/25 03:16:12;;;;;;;44.30;22.40;;;;;;;-1.53;63.06;101749.80;1675151;85;21043;-84
2022/03/25 03:18:40;;;;;;;43.60;23.27;;;;;;;-1.55;63.05;101747.61;1675050;85;21076;-86
2022/03/25 03:21:07;;;;;;;38.23;22.50;;;;;;;-1.58;63.05;101738.47;1675353;85;21078;-87
2022/03/25 03:23:35;;;;;;;42.07;22.83;;;;;;;-1.62;63.06;101746.92;1675150;85;21544;-86
2022/03/25 03:26:02;;;;;;;40.00;21.03;;;;;;;-1.66;63.05;101745.95;1675430;85;21135;-84
2022/03/25 03:28:29;;;;;;;45.23;23.37;;;;;;;-1.68;63.17;101751.44;1675249;85;21039;-88
2022/03/25 03:30:57;;;;;;;42.53;22.40;;;;;;;-1.69;63.40;101748.42;1675416;85;21540;-87
2022/03/25 03:33:24;;;;;;;42.17;21.30;;;;;;;-1.69;63.51;101753.56;1675180;85;21015;-86
2022/03/25 03:35:51;;;;;;;43.67;23.20;;;;;;;-1.71;63.45;101749.19;1675471;85;21031;-86
2022/03/25 03:38:18;;;;;;;44.00;23.37;;;;;;;-1.76;63.37;101746.45;1675339;85;22033;-87
2022/03/25 03:40:45;;;;;;;42.03;22.83;;;;;;;-1.76;63.56;101753.28;1675418;85;21539;-87
2022/03/25 03:43:12;;;;;;;41.57;22.30;;;;;;;-1.74;63.55;101755.51;1675205;85;22060;-83
2022/03/25 03:45:39;;;;;;;47.73;23.90;;;;;;;-1.76;63.54;101753.28;1675473;85;21051;-86
2022/03/25 03:48:07;;;;;;;41.53;22.73;;;;;;;-1.80;63.63;101757.04;1675314;85;21015;-87
2022/03/25 03:50:35;;;;;;;40.53;22.20;;;;;;;-1.80;63.59;101757.45;1675506;85;21139;-87
2022/03/25 03:53:02;;;;;;;45.33;23.53;;;;;;;-1.84;63.61;101764.16;1675133;85;21599;-85
2022/03/25 03:55:30;;;;;;;41.80;22.93;;;;;;;-1.85;63.72;101761.13;1675605;85;21035;-86
2022/03/25 03:57:57;;;;;;;44.70;23.03;;;;;;;-1.88;63.69;101764.89;1675398;85;21520;-86
2022/03/25 04:00:24;;;;;;;45.07;23.50;;;;;;;-1.89;63.67;101764.81;1675447;85;21081;-86
2022/03/25 04:02:52;;;;;;;40.50;22.90;;;;;;;-1.94;63.75;101764.67;1675184;85;21154;-84
2022/03/25 04:05:19;;;;;;;40.60;22.70;;;;;;;-1.96;63.75;101765.02;1675375;85;21043;-83
2022/03/25 04:07:48;;;;;;;46.40;23.83;;;;;;;-1.98;63.77;101760.23;1675159;85;21072;-87
2022/03/25 04:10:17;;;;;;;47.40;24.47;;;;;;;-1.98;63.92;101760.64;1676469;85;21050;-85
2022/03/25 04:12:45;;;;;;;43.03;23.97;;;;;;;-2.01;64.06;101753.70;1676670;85;21041;-85
2022/03/25 04:15:13;;;;;;;43.00;23.47;;;;;;;-2.00;64.23;101754.16;1676737;85;21327;-85
2022/03/25 04:17:42;;;;;;;40.87;23.07;;;;;;;-2.00;64.28;101761.86;1676711;85;21571;-86
2022/03/25 04:20:14;;;;;;;38.43;21.50;;;;;;;-2.02;64.30;101758.39;1676737;85;21011;-86
2022/03/25 04:22:43;;;;;;;48.20;23.83;;;;;;;-2.03;64.24;101761.75;1676770;85;21467;-86
2022/03/25 04:25:12;;;;;;;41.30;22.80;;;;;;;-2.07;64.25;101755.64;1676771;85;21531;-82
2022/03/25 04:27:57;;;;;;;39.97;22.27;;;;;;;-2.08;64.31;101759.04;1676903;85;21488;-86
2022/03/25 04:30:27;;;;;;;40.87;22.17;;;;;;;-2.07;64.30;101757.34;1676614;85;21003;-86
2022/03/25 04:32:57;;;;;;;40.83;21.02;;;;;;;-2.08;64.31;101761.98;1677063;85;22003;-87
2022/03/25 04:35:24;;;;;;;45.60;22.50;;;;;;;-2.09;64.44;101761.12;1676687;85;21458;-87
2022/03/25 04:37:53;;;;;;;38.57;22.60;;;;;;;-2.13;64.35;101762.26;1676926;85;21066;-85
2022/03/25 04:40:23;;;;;;;42.73;21.87;;;;;;;-2.16;64.45;101764.31;1676652;85;21979;-87
2022/03/25 04:42:53;;;;;;;43.98;22.07;;;;;;;-2.16;64.42;101770.73;1676899;85;21043;-86
2022/03/25 04:45:21;;;;;;;41.13;22.48;;;;;;;-2.20;64.44;101767.56;1676823;85;21034;-82
2022/03/25 04:47:48;;;;;;;42.57;21.90;;;;;;;-2.21;64.55;101773.95;1676901;85;21039;-85
2022/03/25 04:50:16;;;;;;;38.67;22.20;;;;;;;-2.23;64.47;101771.30;1676730;85;21529;-86
2022/03/25 04:52:43;;;;;;;42.63;22.87;;;;;;;-2.25;64.55;101775.09;1676854;85;21136;-86
2022/03/25 04:55:11;;;;;;;44.53;22.20;;;;;;;-2.26;64.67;101772.06;1676671;85;21509;-86
2022/03/25 04:57:40;;;;;;;40.00;21.33;;;;;;;-2.28;64.84;101769.84;1676874;85;21019;-82
2022/03/25 05:00:10;;;;;;;39.43;22.87;;;;;;;-2.27;64.91;101769.46;1676755;85;21446;-86
2022/03/25 05:02:38;;;;;;;39.93;21.27;;;;;;;-2.28;65.09;101768.55;1676761;85;21582;-86
2022/03/25 05:05:06;;;;;;;45.50;23.30;;;;;;;-2.26;65.16;101779.77;1676565;85;21155;-87
2022/03/25 05:07:34;;;;;;;40.07;21.50;;;;;;;-2.23;65.25;101776.44;1676545;85;21008;-86
2022/03/25 05:10:02;;;;;;;41.23;22.67;;;;;;;-2.21;65.18;101776.09;1676570;85;21040;-86
2022/03/25 05:12:30;;;;;;;45.80;22.87;;;;;;;-2.18;65.43;101777.50;1676647;85;21011;-85
2022/03/25 05:14:57;;;;;;;44.67;23.00;;;;;;;-2.16;65.24;101778.81;1676729;85;21062;-86
2022/03/25 05:17:25;;;;;;;49.20;22.73;;;;;;;-2.17;65.33;101780.52;1676741;85;21963;-87
2022/03/25 05:19:54;;;;;;;44.40;24.10;;;;;;;-2.15;65.39;101784.02;1676363;85;21066;-83
2022/03/25 05:22:21;;;;;;;43.70;23.27;;;;;;;-2.16;65.40;101782.29;1676484;85;21109;-84
2022/03/25 05:24:48;;;;;;;41.43;22.87;;;;;;;-2.13;65.43;101787.95;1676298;85;21026;-85
2022/03/25 05:27:16;;;;;;;46.80;23.77;;;;;;;-2.11;65.49;101791.01;1676585;85;21098;-86
2022/03/25 05:29:43;;;;;;;44.40;24.13;;;;;;;-2.07;65.61;101792.89;1676267;85;21152;-78
2022/03/25 05:32:11;;;;;;;42.87;24.40;;;;;;;-1.99;65.73;101793.17;1668849;84;21043;-81
2022/03/25 05:34:38;;;;;;;47.67;25.30;;;;;;;-1.92;65.81;101795.55;1683289;84;21047;-85
2022/03/25 05:37:05;;;;;;;52.17;24.93;;;;;;;-1.88;65.79;101797.42;1703708;84;21026;-86
2022/03/25 05:39:32;;;;;;;45.73;23.87;;;;;;;-1.85;65.83;101798.41;1703597;84;21058;-84
2022/03/25 05:41:59;;;;;;;46.03;26.07;;;;;;;-1.78;65.97;101801.19;1688263;84;21647;-86
2022/03/25 05:44:26;;;;;;;49.53;25.97;;;;;;;-1.71;66.08;101802.75;1681889;85;46910;-82
2022/03/25 05:46:53;;;;;;;47.73;26.20;;;;;;;-1.65;66.07;101805.95;1681974;85;21050;-82
2022/03/25 05:49:20;;;;;;;50.17;26.07;;;;;;;-1.58;66.12;101808.80;1682065;85;21053;-85
2022/03/25 05:51:47;;;;;;;48.53;26.30;;;;;;;-1.51;66.26;101804.73;1681923;85;21543;-84
2022/03/25 05:54:14;;;;;;;47.90;26.23;;;;;;;-1.42;66.36;101811.47;1682099;85;21133;-86
2022/03/25 05:56:41;;;;;;;48.13;25.83;;;;;;;-1.33;66.45;101807.45;1682116;85;21094;-84
2022/03/25 05:59:08;;;;;;;46.33;25.47;;;;;;;-1.25;66.50;101809.87;1682065;85;21586;-84
2022/03/25 06:01:36;;;;;;;46.00;23.50;;;;;;;-1.17;66.54;101809.73;1681928;85;21015;-86
2022/03/25 06:04:03;;;;;;;50.00;25.73;;;;;;;-1.09;66.56;101816.00;1694178;84;21191;-85
2022/03/25 06:06:30;;;;;;;44.30;26.00;;;;;;;-1.02;66.58;101812.83;1682299;85;21061;-83
2022/03/25 06:08:57;;;;;;;44.87;24.87;;;;;;;-0.94;66.68;101812.66;1681480;85;21066;-82
2022/03/25 06:11:24;;;;;;;41.83;24.33;;;;;;;-0.80;66.72;101815.69;1675832;85;21494;-83
2022/03/25 06:13:52;;;;;;;47.53;26.13;;;;;;;-0.66;66.77;101821.69;1652339;85;21087;-84
2022/03/25 06:16:19;;;;;;;47.97;26.57;;;;;;;-0.57;66.73;101820.27;1675744;85;21054;-79
2022/03/25 06:18:46;;;;;;;51.37;26.00;;;;;;;-0.48;66.66;101819.25;1675970;85;21158;-86
2022/03/25 06:21:13;;;;;;;49.30;26.63;;;;;;;-0.35;66.70;101820.52;1675725;85;21066;-84
2022/03/25 06:23:40;;;;;;;48.13;26.40;;;;;;;-0.21;66.76;101822.64;1675910;85;21082;-85
2022/03/25 06:26:07;;;;;;;47.67;26.80;;;;;;;-0.09;66.74;101821.69;1676176;85;21055;-86
2022/03/25 06:28:35;;;;;;;49.80;27.97;;;;;;;0.04;66.78;101827.67;1675750;85;21042;-86
2022/03/25 06:31:02;;;;;;;51.77;27.83;;;;;;;0.16;66.79;101826.72;1678533;84;21772;-81
2022/03/25 06:33:29;;;;;;;54.33;28.13;;;;;;;0.31;66.88;101831.88;1675732;85;21524;-83
2022/03/25 06:35:56;;;;;;;54.73;28.33;;;;;;;0.47;67.11;101833.15;1676156;85;21046;-86
2022/03/25 06:38:24;;;;;;;57.30;29.60;;;;;;;0.64;67.24;101830.63;1675722;85;21047;-81
2022/03/25 06:40:51;;;;;;;55.60;29.40;;;;;;;0.81;67.35;101828.48;1676272;85;21035;-81
2022/03/25 06:43:18;;;;;;;51.83;30.23;;;;;;;0.98;67.47;101827.20;1680013;84;21242;-82
2022/03/25 06:45:45;;;;;;;54.07;28.50;;;;;;;1.13;67.52;101827.11;1675810;85;20980;-83
2022/03/25 06:48:12;;;;;;;53.00;29.10;;;;;;;1.26;67.57;101825.30;1676063;85;21078;-83
2022/03/25 06:50:40;;;;;;;57.50;30.93;;;;;;;1.40;67.55;101823.03;1683783;84;21031;-83
2022/03/25 06:53:09;;;;;;;58.40;30.40;;;;;;;1.54;67.45;101824.22;1681741;84;21595;-81
2022/03/25 06:55:40;;;;;;;55.00;29.57;;;;;;;1.69;67.50;101824.58;1676435;84;22054;-83
2022/03/25 06:58:09;;;;;;;61.77;31.40;;;;;;;1.87;67.44;101825.81;1675998;85;22211;-82
2022/03/25 07:00:37;;;;;;;54.63;29.93;;;;;;;2.06;67.04;101823.20;1676171;85;21027;-80
2022/03/25 07:03:05;;;;;;;54.30;29.77;;;;;;;2.30;66.67;101823.70;1675811;85;21086;-83
2022/03/25 07:05:33;;;;;;;128.70;59.97;;;;;;;2.59;66.43;101823.37;1676163;85;21278;-81
2022/03/25 07:08:00;;;;;;;62.47;33.90;;;;;;;2.86;65.94;101826.45;1675976;85;21891;-82
2022/03/25 07:10:29;;;;;;;56.53;29.40;;;;;;;3.12;65.45;101834.66;1676002;85;21099;-78
2022/03/25 07:12:58;;;;;;;61.23;31.33;;;;;;;3.38;64.94;101829.04;1652898;85;21501;-81
2022/03/25 07:15:29;;;;;;;62.20;32.07;;;;;;;3.64;64.61;101835.03;1676225;85;21046;-82
2022/03/25 07:17:56;;;;;;;56.98;28.15;;;;;;;3.84;64.13;101838.77;1676155;85;21008;-76
2022/03/25 07:20:26;;;;;;;56.03;29.60;;;;;;;4.08;63.68;101838.23;1676401;85;21148;-84
2022/03/25 07:22:53;;;;;;;54.58;28.87;;;;;;;4.29;63.11;101836.30;1676276;85;29653;-79
2022/03/25 07:25:20;;;;;;;52.23;28.87;;;;;;;4.46;62.67;101838.69;1676157;85;21102;-85
2022/03/25 07:27:48;;;;;;;56.50;30.07;;;;;;;4.64;62.25;101843.19;1675982;85;21520;-82
2022/03/25 07:30:17;;;;;;;48.13;27.97;;;;;;;4.80;61.94;101840.33;1675940;85;21019;-81
2022/03/25 07:32:47;;;;;;;63.87;34.87;;;;;;;4.98;61.52;101840.05;1675956;85;22017;-79
2022/03/25 07:35:16;;;;;;;58.13;32.05;;;;;;;5.10;61.15;101833.68;1676069;85;21022;-85
2022/03/25 07:37:44;;;;;;;49.03;28.67;;;;;;;5.25;60.94;101843.33;1675989;85;21557;-83
2022/03/25 07:40:14;;;;;;;50.73;28.57;;;;;;;5.40;60.67;101847.33;1675967;85;21552;-78
2022/03/25 07:42:44;;;;;;;48.85;27.67;;;;;;;5.57;60.50;101840.94;1676124;85;21050;-82
2022/03/25 07:45:13;;;;;;;51.95;29.87;;;;;;;5.73;60.18;101841.91;1675710;85;21105;-80
2022/03/25 07:47:44;;;;;;;48.50;27.43;;;;;;;5.86;59.81;101835.92;1676260;85;21078;-76
2022/03/25 07:50:13;;;;;;;51.53;30.85;;;;;;;5.99;59.59;101845.58;1675277;85;21539;-76
2022/03/25 07:52:41;;;;;;;55.47;31.37;;;;;;;6.14;59.25;101849.97;1676302;85;21059;-79
2022/03/25 07:55:09;;;;;;;44.47;27.00;;;;;;;6.30;59.12;101845.70;1675900;85;21035;-79
2022/03/25 07:57:38;;;;;;;47.03;26.23;;;;;;;6.46;58.76;101847.50;1676255;85;21105;-74
2022/03/25 08:00:14;;;;;;;51.53;26.43;;;;;;;6.64;58.31;101847.11;1675893;85;21583;-78
2022/03/25 08:02:43;;;;;;;46.83;26.27;;;;;;;6.75;57.72;101846.70;1676233;85;21570;-77
2022/03/25 08:05:11;;;;;;;46.30;27.37;;;;;;;6.90;57.53;101851.05;1675914;85;21058;-78
2022/03/25 08:07:53;;;;;;;44.60;25.57;;;;;;;7.05;57.29;101848.48;1676268;85;21027;-78
2022/03/25 08:10:23;;;;;;;47.37;26.87;;;;;;;7.23;57.22;101857.16;1675876;85;21154;-76
2022/03/25 08:12:51;;;;;;;;;;;;;;;7.42;56.79;101854.98;1678402;85;21046;-76
2022/03/25 08:15:18;;;;;;;46.00;25.63;;;;;;;7.60;56.40;101856.73;1675949;85;20124;-76
2022/03/25 08:17:57;;;;;;;41.33;26.00;;;;;;;7.76;56.28;101851.02;1675929;85;21039;-79
2022/03/25 08:20:37;;;;;;;44.10;25.87;;;;;;;7.91;55.89;101856.22;1676095;85;21088;-76
2022/03/25 08:23:08;;;;;;;42.60;24.23;;;;;;;8.07;55.57;101851.83;1676058;85;21223;-78
2022/03/25 08:28:21;;;;;;;41.50;24.33;;;;;;;8.42;54.58;101857.36;1676346;85;21047;-78
2022/03/25 08:30:48;;;;;;;37.50;23.57;;;;;;;8.58;54.34;101862.08;1675972;85;21503;-78
2022/03/25 08:33:16;;;;;;;43.17;23.57;;;;;;;8.73;53.97;101862.42;1676229;85;21051;-76
2022/03/25 08:35:43;;;;;;;45.40;21.73;;;;;;;8.86;53.73;101863.64;1675947;85;21135;-79
2022/03/25 08:38:12;;;;;;;36.67;22.00;;;;;;;9.06;53.76;101865.25;1676232;85;21348;-75
2022/03/25 08:40:40;;;;;;;41.13;22.40;;;;;;;9.31;53.60;101862.89;1675946;85;21051;-76
2022/03/25 08:43:07;;;;;;;34.47;21.23;;;;;;;9.55;53.06;101860.47;1676195;85;21062;-76
2022/03/25 08:45:34;;;;;;;38.97;22.63;;;;;;;9.75;52.50;101867.27;1676110;85;21063;-77
2022/03/25 08:48:01;;;;;;;36.67;22.70;;;;;;;9.88;52.12;101868.02;1675924;85;21150;-76
2022/03/25 08:50:28;;;;;;;45.43;24.00;;;;;;;10.01;51.98;101870.48;1675821;85;21030;-75
2022/03/25 08:52:55;;;;;;;39.20;24.00;;;;;;;10.19;51.54;101871.15;1676085;85;21089;-81
2022/03/25 08:55:22;;;;;;;35.10;22.57;;;;;;;10.32;51.18;101870.16;1676014;85;21047;-76
2022/03/25 08:57:50;;;;;;;74.50;26.97;;;;;;;10.45;50.73;101871.73;1674984;85;21570;-76
2022/03/25 09:00:19;;;;;;;47.90;22.97;;;;;;;10.54;50.44;101868.58;1675048;85;21152;-78
2022/03/25 09:02:48;;;;;;;41.42;24.15;;;;;;;10.66;50.08;101872.33;1675284;84;21062;-80
2022/03/25 09:05:16;;;;;;;35.77;22.50;;;;;;;10.81;50.08;101868.19;1674786;84;21039;-79
2022/03/25 09:07:44;;;;;;;36.50;23.53;;;;;;;11.03;50.11;101870.47;1673522;85;21036;-77
2022/03/25 09:10:16;;;;;;;35.50;22.00;;;;;;;11.24;49.56;101871.91;1670077;85;21101;-78
2022/03/25 09:12:45;;;;;;;32.27;20.97;;;;;;;11.37;49.28;101878.69;1652848;86;21134;-77
2022/03/25 09:15:14;;;;;;;37.97;22.97;;;;;;;11.51;48.82;101872.75;1652706;86;21330;-79
2022/03/25 09:17:49;;;;;;;36.57;23.27;;;;;;;11.67;48.68;101873.81;1652618;86;21082;-79
2022/03/25 09:20:13;;;;;;;;;;;;;;;11.87;48.49;101878.27;1653899;86;21038;-79
2022/03/25 09:22:41;;;;;;;34.10;22.10;;;;;;;12.00;47.58;101882.41;1652756;86;20536;-77
2022/03/25 09:25:09;;;;;;;37.53;23.10;;;;;;;12.08;47.52;101880.05;1652663;86;21107;-82
2022/03/25 09:27:39;;;;;;;40.17;23.20;;;;;;;12.20;47.36;101879.38;1652572;86;21109;-78
2022/03/25 09:30:09;;;;;;;40.05;23.90;;;;;;;12.32;46.92;101869.05;1653099;86;21499;-77
2022/03/25 09:32:36;;;;;;;44.90;22.82;;;;;;;12.47;46.68;101871.38;1652817;86;21496;-82
2022/03/25 09:35:09;;;;;;;43.78;22.42;;;;;;;12.63;46.36;101871.02;1652706;86;21054;-80
2022/03/25 09:37:46;;;;;;;36.73;22.82;;;;;;;12.86;46.32;101873.16;1654012;85;21153;-81
2022/03/25 09:40:21;;;;;;;34.92;21.23;;;;;;;13.07;45.88;101867.36;1627279;88;21053;-81
2022/03/25 09:42:52;;;;;;;33.65;22.55;;;;;;;13.22;45.52;101869.20;1627358;88;21053;-82
2022/03/25 09:45:20;;;;;;;32.78;22.42;;;;;;;13.39;45.00;101876.29;1643715;87;21563;-81
2022/03/25 09:47:50;;;;;;;37.45;22.25;;;;;;;13.49;44.75;101873.81;1616138;88;21078;-81
2022/03/25 09:50:21;;;;;;;34.05;22.20;;;;;;;13.67;44.45;101871.63;1629623;88;21139;-77
2022/03/25 09:52:49;;;;;;;35.52;21.73;;;;;;;13.92;44.29;101874.47;1643649;87;21547;-81
2022/03/25 09:55:17;;;;;;;33.85;20.43;;;;;;;14.14;43.92;101873.41;1616271;88;21050;-80
2022/03/25 09:57:45;;;;;;;33.88;21.33;;;;;;;14.34;43.44;101866.24;1643634;86;21039;-79
2022/03/25 10:00:17;;;;;;;32.67;19.95;;;;;;;14.49;42.94;101869.30;1644027;87;21069;-82
2022/03/25 10:02:45;;;;;;;32.25;19.73;;;;;;;14.66;42.63;101867.93;1644064;87;21344;-76
2022/03/25 10:05:18;;;;;;;34.48;21.23;;;;;;;14.89;42.33;101869.88;1643641;87;21042;-81
2022/03/25 10:07:56;;;;;;;36.38;22.77;;;;;;;15.07;42.06;101869.27;1644023;86;21032;-80
2022/03/25 10:10:27;;;;;;;31.68;21.57;;;;;;;15.28;41.61;101862.43;1644706;86;21571;-80
2022/03/25 10:13:05;;;;;;;32.95;22.25;;;;;;;15.45;41.33;101864.97;1688918;82;21078;-82
2022/03/25 10:15:37;;;;;;;31.82;21.95;;;;;;;15.60;41.08;101863.98;1723676;83;21127;-82
2022/03/25 10:18:07;;;;;;;33.92;21.82;;;;;;;15.80;40.55;101863.78;1709674;84;21012;-82
2022/03/25 10:20:40;;;;;;;34.23;22.30;;;;;;;15.97;40.29;101864.50;1709728;84;21012;-82
2022/03/25 10:23:18;;;;;;;37.23;22.27;;;;;;;16.44;39.68;101866.69;1709909;84;21474;-82
2022/03/25 10:25:55;;;;;;;33.10;20.57;;;;;;;16.44;39.68;101866.69;1709365;84;21024;-82
2022/03/25 10:28:44;;;;;;;31.42;21.60;;;;;;;16.65;39.12;101860.16;1709889;84;21106;-80
2022/03/25 10:31:21;;;;;;;29.37;20.48;;;;;;;16.87;38.87;101858.41;1710159;83;21505;-80
2022/03/25 10:33:58;;;;;;;29.95;20.68;;;;;;;17.03;38.36;101853.83;1709109;82;21059;-74
2022/03/25 10:36:25;;;;;;;45.48;23.07;;;;;;;17.27;37.96;101848.84;1708693;83;21040;-81
2022/03/25 10:39:00;;;;;;;34.85;22.25;;;;;;;17.52;38.02;101852.64;1709780;84;21044;-80
2022/03/25 10:41:40;;;;;;;29.55;22.13;;;;;;;17.80;37.60;101843.05;1710102;83;21600;-81
2022/03/25 10:44:10;;;;;;;29.07;20.95;;;;;;;17.92;37.00;101837.65;1709927;83;20996;-82
2022/03/25 10:46:48;;;;;;;29.60;22.07;;;;;;;18.12;36.59;101836.73;1709821;83;21063;-79
2022/03/25 10:49:18;;;;;;;29.37;19.67;;;;;;;18.26;35.92;101837.43;1709816;84;21099;-74
2022/03/25 10:52:01;;;;;;;20.90;15.78;;;;;;;18.33;35.44;101838.02;1710560;83;21619;-75
2022/03/25 10:54:29;;;;;;;23.20;16.93;;;;;;;18.48;34.90;101832.86;1710046;83;21952;-80
2022/03/25 10:57:00;;;;;;;23.77;16.37;;;;;;;18.95;33.91;101838.15;1710341;83;21024;-84
2022/03/25 10:59:31;;;;;;;;;;;;;;;18.95;33.91;101838.15;1712627;84;21899;-84
2022/03/25 11:02:06;;;;;;;24.18;17.17;;;;;;;19.00;32.86;101833.47;1725285;83;20176;-83
2022/03/25 11:04:34;;;;;;;24.50;17.92;;;;;;;19.12;33.19;101828.89;1710151;84;21063;-84
2022/03/25 11:07:03;;;;;;;22.75;16.55;;;;;;;19.27;32.80;101829.91;1710016;84;21370;-81
2022/03/25 11:09:31;;;;;;;22.87;15.15;;;;;;;19.39;32.61;101823.09;1710023;84;21625;-83
2022/03/25 11:11:59;;;;;;;27.70;17.62;;;;;;;19.68;32.59;101821.62;1703535;83;20885;-83
2022/03/25 11:14:27;;;;;;;25.68;18.35;;;;;;;19.94;32.05;101822.89;1699649;84;21001;-83
2022/03/25 11:16:58;;;;;;;26.90;17.32;;;;;;;19.94;31.38;101817.56;1699645;84;21502;-84
2022/03/25 11:19:26;;;;;;;22.65;16.10;;;;;;;19.91;31.38;101821.72;1699653;84;21111;-84
2022/03/25 11:21:54;;;;;;;16.17;11.70;;;;;;;20.21;31.37;101820.53;1699715;84;20993;-84